Time;durP1;ratioP1;P1;durP2;ratioP2;P2;SDS_P1;SDS_P2;PMS_P1;PMS_P2;Temp;Humidity;BMP_temperature;BMP_pressure;BME280_temperature;BME280_humidity;BME280_pressure;Samples;Min_cycle;Max_cycle;Signal;HPM_P1;HPM_P2
2022/09/28 00:00:13;;;;;;;2.78;1.45;;;;;;;10.24;79.37;98836.97;4179719;28;20053;-58
2022/09/28 00:02:16;;;;;;;3.70;1.63;;;;;;;10.27;79.18;98842.16;4180272;28;20048;-58
2022/09/28 00:04:21;;;;;;;6.97;1.60;;;;;;;10.26;79.77;98832.63;4178213;28;20056;-58
2022/09/28 00:06:26;;;;;;;3.90;1.15;;;;;;;10.22;79.47;98834.41;4179010;28;20046;-58
2022/09/28 00:08:29;;;;;;;1.70;1.17;;;;;;;10.27;78.94;98837.78;4179015;28;20045;-57
2022/09/28 00:10:32;;;;;;;2.92;1.40;;;;;;;10.18;79.58;98819.72;4180248;28;20037;-57
2022/09/28 00:12:35;;;;;;;4.60;1.42;;;;;;;10.18;79.82;98816.25;4180252;28;20083;-57
2022/09/28 00:14:39;;;;;;;3.53;1.30;;;;;;;10.26;79.46;98814.44;4178106;28;20079;-57
2022/09/28 00:16:43;;;;;;;6.78;1.60;;;;;;;10.25;79.73;98804.91;4180801;28;20119;-57
2022/09/28 00:18:48;;;;;;;3.92;1.40;;;;;;;10.18;80.15;98808.47;4180169;28;20140;-57
2022/09/28 00:21:01;;;;;;;5.57;1.45;;;;;;;10.21;80.25;98806.72;4178784;28;20094;-57
2022/09/28 00:23:04;;;;;;;3.00;1.23;;;;;;;10.22;79.70;98807.56;4181438;28;20049;-59
2022/09/28 00:25:08;;;;;;;2.97;1.25;;;;;;;10.17;79.91;98798.97;4181717;28;20067;-57
2022/09/28 00:27:11;;;;;;;2.78;1.38;;;;;;;10.18;80.54;98805.88;4182149;28;20045;-57
2022/09/28 00:29:20;;;;;;;5.32;1.20;;;;;;;10.24;80.10;98798.03;4182057;28;20526;-57
2022/09/28 00:31:23;;;;;;;4.38;1.58;;;;;;;10.30;80.45;98795.34;4198619;28;20437;-57
2022/09/28 00:33:26;;;;;;;1.95;1.20;;;;;;;10.32;79.88;98796.19;4181685;28;20043;-57
2022/09/28 00:35:29;;;;;;;2.83;1.65;;;;;;;10.36;80.31;98795.31;4181793;28;20041;-57
2022/09/28 00:37:33;;;;;;;3.10;1.45;;;;;;;10.41;79.66;98788.34;4181849;28;20041;-57
2022/09/28 00:39:40;;;;;;;3.83;1.70;;;;;;;10.46;79.89;98791.72;4198438;28;20071;-57
2022/09/28 00:41:43;;;;;;;2.28;1.40;;;;;;;10.40;79.66;98780.56;4181779;28;20045;-57
2022/09/28 00:43:46;;;;;;;3.47;1.45;;;;;;;10.43;80.37;98780.53;4180985;28;20056;-57
2022/09/28 00:45:55;;;;;;;3.65;1.65;;;;;;;10.43;79.96;98780.53;4182995;28;20048;-58
2022/09/28 00:47:59;;;;;;;3.50;1.75;;;;;;;10.42;80.34;98769.25;4181745;28;20048;-57
2022/09/28 00:50:06;;;;;;;5.70;1.52;;;;;;;10.41;80.31;98770.16;4198116;28;20056;-57
2022/09/28 00:52:13;;;;;;;4.40;1.73;;;;;;;10.45;80.19;98766.63;4181670;28;20044;-57
2022/09/28 00:54:17;;;;;;;6.18;1.90;;;;;;;10.44;80.05;98764.91;4180849;28;20033;-57
2022/09/28 00:56:23;;;;;;;5.03;1.83;;;;;;;10.39;80.65;98761.50;4181619;28;20041;-57
2022/09/28 00:58:31;;;;;;;2.75;1.42;;;;;;;10.33;80.45;98761.53;4181636;28;20033;-58
2022/09/28 01:00:34;;;;;;;5.70;2.38;;;;;;;10.39;80.61;98752.84;4181760;28;20052;-57
2022/09/28 01:02:36;;;;;;;7.55;1.88;;;;;;;10.43;81.35;98752.78;4164856;28;20041;-57
2022/09/28 01:04:39;;;;;;;3.78;1.90;;;;;;;10.36;81.50;98743.34;4180765;28;20037;-58
2022/09/28 01:06:45;;;;;;;5.47;2.10;;;;;;;10.35;81.10;98741.63;4181611;28;20515;-58
2022/09/28 01:08:51;;;;;;;6.68;1.70;;;;;;;10.37;81.39;98729.50;4164987;28;20041;-59
2022/09/28 01:10:56;;;;;;;2.97;1.17;;;;;;;10.27;81.41;98727.88;4148485;28;20049;-58
2022/09/28 01:12:58;;;;;;;2.47;1.30;;;;;;;10.28;81.22;98735.63;4164944;28;20065;-58
2022/09/28 01:15:02;;;;;;;4.55;1.50;;;;;;;10.35;80.90;98720.84;4164135;28;20042;-58
2022/09/28 01:17:10;;;;;;;1.75;1.33;;;;;;;10.41;81.19;98717.31;4164829;28;20041;-58
2022/09/28 01:19:47;;;;;;;3.40;1.20;;;;;;;10.33;80.94;98707.00;4164821;28;20048;-58
2022/09/28 01:21:53;;;;;;;3.55;1.67;;;;;;;10.37;81.28;98700.06;4149937;28;20485;-58
2022/09/28 01:24:13;;;;;;;2.33;1.27;;;;;;;10.48;81.55;98691.25;4189635;28;20037;-58
2022/09/28 01:26:44;;;;;;;4.38;1.52;;;;;;;10.36;81.65;98699.19;4179601;28;20082;-58
2022/09/28 01:28:53;;;;;;;2.45;1.20;;;;;;;10.26;82.25;98700.16;4157475;28;20088;-58
2022/09/28 01:31:05;;;;;;;5.15;1.48;;;;;;;10.32;82.49;98700.06;4171128;28;20048;-58
2022/09/28 01:33:12;;;;;;;2.80;1.40;;;;;;;10.44;81.64;98694.78;4190045;28;20037;-59
2022/09/28 01:35:20;;;;;;;2.90;1.30;;;;;;;10.54;80.90;98697.22;4180681;28;20037;-58
2022/09/28 01:37:30;;;;;;;3.95;1.92;;;;;;;10.42;81.55;98696.50;4197590;28;20076;-58
2022/09/28 01:39:37;;;;;;;2.92;1.58;;;;;;;10.44;81.82;98694.78;4180887;28;20098;-58
2022/09/28 01:41:45;;;;;;;2.63;1.10;;;;;;;10.53;81.36;98695.50;4188677;28;20535;-58
2022/09/28 01:43:54;;;;;;;2.70;1.10;;;;;;;10.44;81.75;98694.78;4196598;28;20078;-58
2022/09/28 01:46:01;;;;;;;2.60;1.15;;;;;;;10.39;82.12;98691.34;4197450;28;20075;-58
2022/09/28 01:48:07;;;;;;;2.15;1.27;;;;;;;10.42;82.24;98693.06;4198602;28;20036;-59
2022/09/28 01:50:14;;;;;;;2.30;1.23;;;;;;;10.45;82.15;98693.03;4197293;28;20409;-58
2022/09/28 01:52:23;;;;;;;2.90;1.50;;;;;;;10.45;81.60;98691.31;4182411;28;20489;-58
2022/09/28 01:54:30;;;;;;;1.52;1.10;;;;;;;10.47;81.81;98676.53;4180042;28;20403;-58
2022/09/28 01:56:45;;;;;;;1.55;1.17;;;;;;;10.45;81.53;98680.91;4180959;28;20037;-58
2022/09/28 01:58:54;;;;;;;2.83;1.30;;;;;;;10.50;81.77;98677.34;4180635;28;20041;-58
2022/09/28 02:01:02;;;;;;;2.63;1.23;;;;;;;10.47;82.23;98684.34;4174961;28;20053;-58
2022/09/28 02:03:11;;;;;;;2.17;1.10;;;;;;;10.56;81.75;98677.28;4178465;28;20040;-59
2022/09/28 02:05:23;;;;;;;3.35;1.33;;;;;;;10.50;81.18;98661.78;4177670;28;20045;-58
2022/09/28 02:07:31;;;;;;;2.50;1.00;;;;;;;10.62;81.19;98664.22;4177689;28;20040;-58
2022/09/28 02:09:39;;;;;;;1.88;1.23;;;;;;;10.55;81.61;98659.97;4171225;28;20044;-58
2022/09/28 02:11:49;;;;;;;2.60;1.08;;;;;;;10.60;81.15;98659.03;4154984;28;20454;-58
2022/09/28 02:13:58;;;;;;;0.82;0.80;;;;;;;10.56;81.71;98667.75;4178322;28;20040;-58
2022/09/28 02:16:05;;;;;;;1.42;0.90;;;;;;;10.54;81.47;98659.13;4168099;28;20041;-58
2022/09/28 02:18:09;;;;;;;2.20;1.00;;;;;;;10.59;81.11;98646.06;4154739;28;20041;-60
2022/09/28 02:20:13;;;;;;;2.78;0.93;;;;;;;10.54;81.76;98656.53;4179064;28;20033;-58
2022/09/28 02:22:24;;;;;;;1.50;0.80;;;;;;;10.59;81.76;98651.25;4176589;28;20538;-58
2022/09/28 02:24:36;;;;;;;1.30;0.70;;;;;;;10.61;81.57;98652.09;4168591;28;20453;-58
2022/09/28 02:26:43;;;;;;;2.47;0.88;;;;;;;10.58;81.33;98639.16;4195435;28;20063;-58
2022/09/28 02:28:47;;;;;;;1.27;0.82;;;;;;;10.57;81.97;98632.22;4185478;28;20032;-58
2022/09/28 02:30:50;;;;;;;0.50;0.50;;;;;;;10.62;81.53;98633.88;4188246;28;20044;-59
2022/09/28 02:32:56;;;;;;;3.97;0.80;;;;;;;10.63;81.01;98630.41;4151218;28;20048;-58
2022/09/28 02:34:59;;;;;;;0.40;0.40;;;;;;;10.51;81.36;98640.13;4153587;28;20072;-58
2022/09/28 02:37:03;;;;;;;1.98;1.00;;;;;;;10.48;81.46;98639.28;4179208;28;20094;-58
2022/09/28 02:39:12;;;;;;;1.02;0.70;;;;;;;10.44;81.41;98636.75;4175940;28;20037;-60
2022/09/28 02:41:26;;;;;;;1.60;0.68;;;;;;;10.46;80.96;98635.84;4174832;28;20518;-58
2022/09/28 02:43:37;;;;;;;1.88;0.82;;;;;;;10.48;81.08;98633.22;4191916;28;20041;-58
2022/09/28 02:45:55;;;;;;;2.50;1.08;;;;;;;10.44;81.57;98642.81;4178171;28;20037;-58
2022/09/28 02:48:12;;;;;;;3.97;1.33;;;;;;;10.39;81.60;98639.41;4167822;28;20041;-58
2022/09/28 02:50:22;;;;;;;4.65;1.00;;;;;;;10.38;82.25;98642.91;4179197;28;20124;-59
2022/09/28 02:52:44;;;;;;;3.58;1.20;;;;;;;10.41;82.12;98652.38;4175762;28;20427;-58
2022/09/28 02:55:10;;;;;;;3.08;1.50;;;;;;;10.39;81.88;98642.00;4166625;28;20038;-58
2022/09/28 02:57:18;;;;;;;;;;;;;;;10.30;82.21;98640.38;4187804;28;20033;-59
2022/09/28 02:59:34;;;;;;;4.55;1.60;;;;;;;10.34;82.33;98630.84;4184341;28;19955;-58
2022/09/28 03:01:45;;;;;;;4.55;1.30;;;;;;;10.39;81.45;98634.22;4172960;28;20088;-58
2022/09/28 03:03:54;;;;;;;1.35;1.08;;;;;;;10.36;82.01;98636.00;4177950;28;20041;-58
2022/09/28 03:06:02;;;;;;;2.88;1.10;;;;;;;10.40;81.66;98629.91;4172300;28;20049;-58
2022/09/28 03:08:20;;;;;;;2.35;0.90;;;;;;;10.43;81.22;98614.25;4169527;28;20426;-58
2022/09/28 03:10:28;;;;;;;2.20;0.80;;;;;;;10.41;81.27;98632.47;4178536;28;20063;-58
2022/09/28 03:12:32;;;;;;;1.95;0.70;;;;;;;10.39;81.33;98648.94;4187162;28;20041;-58
2022/09/28 03:14:35;;;;;;;;;;;;;;;10.29;81.51;98637.78;4172072;28;20531;-58
2022/09/28 03:16:43;;;;;;;1.73;0.80;;;;;;;10.38;81.18;98642.91;4170455;28;19974;-58
2022/09/28 03:18:46;;;;;;;2.05;0.95;;;;;;;10.43;81.44;98646.28;4176658;28;20072;-58
2022/09/28 03:20:49;;;;;;;1.55;0.65;;;;;;;10.38;81.30;98648.09;4171208;28;20049;-59
2022/09/28 03:22:52;;;;;;;5.32;0.98;;;;;;;10.45;80.77;98639.34;4170303;28;20551;-58
2022/09/28 03:25:15;;;;;;;2.92;0.80;;;;;;;10.38;81.40;98642.91;4170515;28;20041;-58
2022/09/28 03:27:18;;;;;;;2.22;1.00;;;;;;;10.59;79.85;98639.13;4178330;28;20059;-58
2022/09/28 03:29:21;;;;;;;1.63;0.88;;;;;;;10.54;79.46;98629.69;4179239;28;20036;-58
2022/09/28 03:31:30;;;;;;;3.33;0.88;;;;;;;10.55;79.67;98631.41;4162846;28;20045;-58
2022/09/28 03:33:34;;;;;;;1.40;0.85;;;;;;;10.54;80.69;98629.69;4178607;28;20033;-59
2022/09/28 03:35:37;;;;;;;0.95;0.93;;;;;;;10.57;80.23;98632.22;4179355;28;20037;-58
2022/09/28 03:37:40;;;;;;;2.60;1.00;;;;;;;10.55;79.55;98627.06;4180594;28;20091;-58
2022/09/28 03:39:43;;;;;;;6.68;1.67;;;;;;;10.56;79.98;98633.97;4179486;28;20072;-58
2022/09/28 03:41:46;;;;;;;1.80;0.77;;;;;;;10.57;80.04;98622.72;4179341;28;20041;-58
2022/09/28 03:43:49;;;;;;;1.75;1.25;;;;;;;10.57;79.96;98633.09;4161957;28;20450;-58
2022/09/28 03:45:53;;;;;;;1.98;1.17;;;;;;;10.63;79.64;98637.31;4179255;28;20037;-58
2022/09/28 03:47:57;;;;;;;4.95;1.38;;;;;;;10.58;80.02;98633.94;4179210;28;20037;-58
2022/09/28 03:50:01;;;;;;;2.33;1.23;;;;;;;10.49;80.07;98645.34;4179209;28;20043;-58
2022/09/28 03:52:04;;;;;;;2.72;1.20;;;;;;;10.49;80.74;98640.13;4171847;28;20102;-58
2022/09/28 03:54:07;;;;;;;3.78;1.30;;;;;;;10.54;80.31;98630.56;4178164;28;20037;-58
2022/09/28 03:56:13;;;;;;;2.22;1.40;;;;;;;10.61;80.46;98623.50;4179224;28;20045;-58
2022/09/28 03:58:16;;;;;;;2.05;1.30;;;;;;;10.60;80.00;98626.97;4179749;28;20044;-58
2022/09/28 04:00:19;;;;;;;1.00;0.80;;;;;;;10.57;80.13;98627.91;4195944;28;20044;-58
2022/09/28 04:02:23;;;;;;;4.75;1.92;;;;;;;10.58;79.73;98631.34;4178023;28;20476;-59
2022/09/28 04:04:26;;;;;;;1.55;0.95;;;;;;;10.58;80.09;98628.75;4177551;28;20033;-58
2022/09/28 04:06:30;;;;;;;3.00;1.20;;;;;;;10.57;80.28;98621.81;4156692;28;21320;-59
2022/09/28 04:08:33;;;;;;;4.88;1.60;;;;;;;10.60;80.01;98626.97;4172629;28;20041;-58
2022/09/28 04:10:36;;;;;;;3.90;1.40;;;;;;;10.52;79.22;98621.91;4173960;28;20094;-58
2022/09/28 04:12:39;;;;;;;2.97;1.33;;;;;;;10.56;79.70;98625.34;4174550;28;20087;-59
2022/09/28 04:14:41;;;;;;;5.93;1.63;;;;;;;10.51;80.04;98634.91;4178800;28;20112;-58
2022/09/28 04:16:46;;;;;;;2.63;1.77;;;;;;;10.49;79.91;98629.75;4165469;28;20481;-58
2022/09/28 04:18:50;;;;;;;2.10;1.10;;;;;;;10.46;80.07;98638.44;4182262;28;20043;-59
2022/09/28 04:21:23;;;;;;;3.05;1.63;;;;;;;10.45;79.67;98639.34;4157938;28;20499;-58
2022/09/28 04:23:38;;;;;;;4.05;1.70;;;;;;;10.45;80.12;98641.06;4178811;28;20128;-58
2022/09/28 04:25:41;;;;;;;3.83;1.48;;;;;;;10.43;80.10;98641.09;4181110;28;20056;-58
2022/09/28 04:30:05;;;;;;;5.28;1.90;;;;;;;10.46;80.29;98642.78;4172813;28;20046;-58
2022/09/28 04:32:10;;;;;;;5.20;2.13;;;;;;;10.46;80.24;98654.03;4176353;28;20524;-58
2022/09/28 04:34:17;;;;;;;4.38;1.90;;;;;;;10.45;80.11;98660.13;4175215;28;20049;-58
2022/09/28 04:36:20;;;;;;;5.22;2.30;;;;;;;10.45;79.72;98664.44;4162020;28;20120;-58
2022/09/28 04:38:22;;;;;;;4.57;2.30;;;;;;;10.46;80.03;98654.03;4176274;28;20042;-57
2022/09/28 04:40:50;;;;;;;4.65;2.15;;;;;;;10.47;80.36;98660.09;4172498;28;20042;-58
2022/09/28 04:42:54;;;;;;;4.13;1.80;;;;;;;10.53;80.42;98659.13;4172390;28;20045;-58
2022/09/28 04:44:57;;;;;;;3.78;1.55;;;;;;;10.50;80.53;98653.97;4191305;28;20037;-58
2022/09/28 04:47:00;;;;;;;5.65;2.28;;;;;;;10.54;80.44;98655.66;4174657;28;20045;-58
2022/09/28 04:49:08;;;;;;;7.25;2.38;;;;;;;10.52;80.00;98650.47;4182670;28;20044;-58
2022/09/28 04:51:37;;;;;;;4.78;2.58;;;;;;;10.53;80.16;98651.34;4173271;28;20057;-58
2022/09/28 04:53:40;;;;;;;4.63;1.85;;;;;;;10.51;79.88;98653.09;4187094;28;20055;-58
2022/09/28 04:55:43;;;;;;;4.88;2.15;;;;;;;10.50;80.02;98647.06;4197192;28;20040;-58
2022/09/28 04:57:47;;;;;;;7.22;2.30;;;;;;;10.50;79.92;98652.25;4192710;28;20141;-58
2022/09/28 04:59:50;;;;;;;6.47;2.10;;;;;;;10.52;80.69;98654.84;4181317;28;20051;-58
2022/09/28 05:01:53;;;;;;;8.93;2.10;;;;;;;10.51;80.77;98664.34;4181347;28;20045;-58
2022/09/28 05:03:59;;;;;;;5.43;2.58;;;;;;;10.53;79.95;98661.72;4180398;28;20040;-58
2022/09/28 05:06:14;;;;;;;7.32;2.05;;;;;;;10.54;80.72;98660.84;4176520;28;20518;-58
2022/09/28 05:08:19;;;;;;;7.72;2.00;;;;;;;10.57;80.19;98664.28;4163045;28;20041;-58
2022/09/28 05:10:22;;;;;;;5.20;1.95;;;;;;;10.59;80.42;98659.91;4181167;28;20159;-58
2022/09/28 05:12:25;;;;;;;3.92;1.60;;;;;;;10.55;80.12;98654.78;4163577;28;20072;-59
2022/09/28 05:14:29;;;;;;;6.57;2.00;;;;;;;10.52;80.09;98657.44;4180218;28;20033;-58
2022/09/28 05:16:32;;;;;;;6.55;2.08;;;;;;;10.49;79.71;98663.53;4181151;28;20037;-59
2022/09/28 05:18:55;;;;;;;5.47;2.00;;;;;;;10.47;80.33;98665.28;4178112;28;20044;-58
2022/09/28 05:20:58;;;;;;;6.93;2.25;;;;;;;10.45;79.99;98670.53;4180782;28;20118;-58
2022/09/28 05:23:01;;;;;;;11.23;2.67;;;;;;;10.49;80.07;98671.31;4181164;28;20048;-58
2022/09/28 05:25:04;;;;;;;6.18;2.90;;;;;;;10.50;79.88;98673.03;4192236;28;20124;-58
2022/09/28 05:27:18;;;;;;;10.60;2.57;;;;;;;10.51;80.33;98676.50;4180851;28;20049;-58
2022/09/28 05:29:31;;;;;;;7.80;2.90;;;;;;;10.53;79.63;98673.00;4180872;28;20041;-58
2022/09/28 05:32:13;;;;;;;11.20;2.67;;;;;;;10.50;79.84;98675.66;4166814;28;20320;-58
2022/09/28 05:34:33;;;;;;;9.32;2.60;;;;;;;10.55;80.05;98679.03;4180339;28;20137;-59
2022/09/28 05:36:37;;;;;;;5.45;2.33;;;;;;;10.59;79.48;98685.88;4181024;28;20091;-58
2022/09/28 05:38:40;;;;;;;10.32;3.10;;;;;;;10.58;79.94;98688.50;4164173;28;20053;-58
2022/09/28 05:40:44;;;;;;;5.05;3.00;;;;;;;10.59;80.07;98692.84;4180706;28;20041;-59
2022/09/28 05:42:46;;;;;;;10.00;2.85;;;;;;;10.60;80.04;98686.75;4180747;28;20043;-58
2022/09/28 05:44:52;;;;;;;7.63;3.97;;;;;;;10.60;80.07;98690.22;4180009;28;20033;-58
2022/09/28 05:46:54;;;;;;;6.95;3.60;;;;;;;10.58;79.52;98688.50;4179456;28;20090;-58
2022/09/28 05:48:58;;;;;;;12.48;5.13;;;;;;;10.62;79.41;98695.38;4180483;28;20045;-58
2022/09/28 05:51:03;;;;;;;14.45;5.90;;;;;;;10.60;79.43;98697.13;4164212;28;20042;-58
2022/09/28 05:53:08;;;;;;;13.75;4.88;;;;;;;10.59;79.89;98692.84;4163931;28;20045;-58
2022/09/28 05:55:12;;;;;;;16.10;6.75;;;;;;;10.60;80.01;98699.72;4179688;28;20088;-58
2022/09/28 05:57:16;;;;;;;13.32;5.63;;;;;;;10.61;79.76;98698.88;4177272;28;20029;-58
2022/09/28 05:59:19;;;;;;;9.00;4.78;;;;;;;10.59;80.04;98698.03;4177933;28;20041;-58
2022/09/28 06:01:23;;;;;;;7.80;4.43;;;;;;;10.60;80.26;98704.94;4180225;28;20055;-58
2022/09/28 06:03:27;;;;;;;14.05;6.65;;;;;;;10.60;79.77;98707.53;4179060;28;20041;-63
2022/09/28 06:05:30;;;;;;;14.90;5.85;;;;;;;10.61;80.58;98709.25;4179936;28;20045;-58
2022/09/28 06:07:33;;;;;;;10.25;5.85;;;;;;;10.60;80.48;98694.53;4179249;28;20478;-59
2022/09/28 06:09:36;;;;;;;14.25;6.57;;;;;;;10.58;80.30;98706.69;4178791;28;20056;-58
2022/09/28 06:12:07;;;;;;;9.27;3.75;;;;;;;10.55;79.87;98706.75;4181218;28;20037;-58
2022/09/28 06:14:20;;;;;;;7.60;3.50;;;;;;;10.54;79.65;98708.50;4176141;28;20029;-58
2022/09/28 06:16:24;;;;;;;9.48;3.58;;;;;;;10.57;79.66;98713.66;4183214;28;20418;-58
2022/09/28 06:18:27;;;;;;;11.00;4.30;;;;;;;10.61;79.62;98706.66;4158344;28;20076;-58
2022/09/28 06:20:49;;;;;;;11.40;4.38;;;;;;;10.63;79.67;98717.88;4171646;28;20063;-58
2022/09/28 06:22:54;;;;;;;7.95;3.90;;;;;;;10.69;79.88;98719.53;4178972;28;20068;-58
2022/09/28 06:24:57;;;;;;;7.90;3.08;;;;;;;10.68;79.03;98717.84;4152130;28;20069;-58
2022/09/28 06:27:00;;;;;;;7.38;2.83;;;;;;;10.68;79.38;98723.88;4175610;28;20043;-58
2022/09/28 06:29:03;;;;;;;8.45;3.42;;;;;;;10.71;79.44;98729.03;4163115;28;20052;-58
2022/09/28 06:31:06;;;;;;;7.07;3.28;;;;;;;10.74;80.28;98728.97;4157021;28;20049;-58
2022/09/28 06:33:17;;;;;;;7.28;3.13;;;;;;;10.76;80.38;98732.44;4179230;28;20045;-58
2022/09/28 06:35:21;;;;;;;5.82;2.83;;;;;;;10.74;79.61;98736.78;4179015;28;20132;-58
2022/09/28 06:37:26;;;;;;;;;;;;;;;10.66;80.33;98733.44;4190155;28;20127;-58
2022/09/28 06:39:30;;;;;;;4.60;2.20;;;;;;;10.69;80.73;98740.31;4179544;28;19921;-58
2022/09/28 06:41:33;;;;;;;6.47;2.40;;;;;;;10.71;80.02;98738.59;4179869;28;20041;-58
2022/09/28 06:43:47;;;;;;;5.47;2.83;;;;;;;10.77;79.60;98738.47;4178705;28;20064;-58
2022/09/28 06:46:10;;;;;;;4.65;2.10;;;;;;;10.73;79.67;98744.59;4179205;28;20037;-58
2022/09/28 06:48:26;;;;;;;6.32;2.35;;;;;;;10.76;80.01;98740.25;4180746;28;20045;-58
2022/09/28 06:50:32;;;;;;;7.75;3.13;;;;;;;10.76;79.57;98748.03;4184031;28;20094;-58
2022/09/28 06:53:01;;;;;;;5.18;1.90;;;;;;;10.68;79.19;98755.06;4178130;28;20144;-58
2022/09/28 06:55:40;;;;;;;5.60;1.95;;;;;;;10.65;79.66;98755.13;4162299;28;20060;-58
2022/09/28 06:57:43;;;;;;;4.05;2.58;;;;;;;10.67;78.79;98752.50;4169915;28;20087;-58
2022/09/28 06:59:46;;;;;;;5.82;2.00;;;;;;;10.66;78.36;98756.84;4179095;28;20120;-58
2022/09/28 07:01:49;;;;;;;7.05;2.67;;;;;;;10.69;79.32;98751.59;4162783;28;20045;-58
2022/09/28 07:04:32;;;;;;;7.30;2.20;;;;;;;10.70;78.68;98758.50;4179052;28;20044;-58
2022/09/28 07:07:14;;;;;;;9.43;2.60;;;;;;;10.76;78.57;98774.03;4157914;28;20068;-58
2022/09/28 07:09:17;;;;;;;10.90;2.90;;;;;;;10.82;78.50;98771.34;4179299;28;20199;-58
2022/09/28 07:11:52;;;;;;;7.97;2.50;;;;;;;10.82;78.57;98768.72;4163193;28;20103;-58
2022/09/28 07:14:15;;;;;;;7.97;2.70;;;;;;;10.85;78.99;98777.34;4174909;28;20132;-58
2022/09/28 07:16:38;;;;;;;4.50;2.38;;;;;;;10.90;78.91;98780.75;4179134;28;20107;-58
2022/09/28 07:19:02;;;;;;;4.95;2.30;;;;;;;10.90;78.43;98778.16;4179622;28;20045;-58
2022/09/28 07:21:07;;;;;;;5.93;2.10;;;;;;;10.95;78.08;98784.13;4178575;28;20047;-58
2022/09/28 07:23:18;;;;;;;8.82;2.33;;;;;;;10.96;78.01;98786.72;4178041;28;20043;-58
2022/09/28 07:25:54;;;;;;;8.20;2.03;;;;;;;10.99;78.09;98793.63;4178179;28;20033;-57
2022/09/28 07:28:05;;;;;;;6.13;2.60;;;;;;;11.02;77.72;98790.97;4179390;28;20041;-57
2022/09/28 07:30:33;;;;;;;5.70;2.03;;;;;;;11.07;77.49;98793.50;4161008;28;20060;-57
2022/09/28 07:32:50;;;;;;;5.28;2.28;;;;;;;11.06;78.21;98792.66;4178149;28;20036;-55
2022/09/28 07:35:06;;;;;;;6.70;2.30;;;;;;;11.07;77.32;98802.19;4195221;28;20075;-57
2022/09/28 07:37:23;;;;;;;10.52;2.38;;;;;;;11.08;77.56;98800.44;4192623;28;20040;-57
2022/09/28 07:39:26;;;;;;;5.45;1.85;;;;;;;11.07;77.33;98809.09;4179333;28;20045;-56
2022/09/28 07:41:31;;;;;;;5.53;1.95;;;;;;;11.07;76.18;98815.19;4162731;28;20046;-58
2022/09/28 07:43:35;;;;;;;5.35;1.85;;;;;;;11.10;76.35;98816.88;4159491;28;20042;-57
2022/09/28 07:45:38;;;;;;;5.40;1.95;;;;;;;11.07;77.05;98820.38;4191087;28;20028;-58
2022/09/28 07:47:42;;;;;;;6.28;2.10;;;;;;;11.00;76.74;98822.19;4172878;28;20056;-57
2022/09/28 07:50:02;;;;;;;8.43;2.25;;;;;;;10.98;76.20;98818.78;4155961;28;20111;-58
2022/09/28 07:52:27;;;;;;;6.18;2.28;;;;;;;11.00;76.25;98818.75;4153608;28;20140;-57
2022/09/28 07:54:42;;;;;;;6.28;1.80;;;;;;;11.05;75.55;98832.53;4189028;28;20406;-58
2022/09/28 07:56:57;;;;;;;;;;;;;;;10.98;74.85;98830.91;4163390;28;20101;-58
2022/09/28 07:59:30;;;;;;;7.57;2.10;;;;;;;11.00;75.54;98831.75;4179039;28;20374;-57
2022/09/28 08:01:51;;;;;;;7.20;1.83;;;;;;;10.97;75.44;98830.06;4178976;28;20580;-61
2022/09/28 08:03:55;;;;;;;3.60;1.40;;;;;;;11.03;74.29;98836.06;4161712;28;20053;-58
2022/09/28 08:05:59;;;;;;;4.03;1.65;;;;;;;11.11;74.65;98829.88;4178729;28;20041;-58
2022/09/28 08:08:03;;;;;;;4.40;1.80;;;;;;;11.17;74.60;98842.78;4193846;28;20062;-58
2022/09/28 08:10:07;;;;;;;8.13;2.75;;;;;;;11.30;74.42;98837.38;4179565;28;20041;-58
2022/09/28 08:12:30;;;;;;;4.85;1.80;;;;;;;11.34;73.35;98839.06;4171524;28;20029;-58
2022/09/28 08:15:02;;;;;;;4.70;1.50;;;;;;;11.25;72.83;98845.25;4172465;28;20076;-58
2022/09/28 08:17:17;;;;;;;5.18;1.65;;;;;;;11.34;72.22;98847.72;4176879;28;20083;-58
2022/09/28 08:21:43;;;;;;;6.32;1.45;;;;;;;11.35;72.24;98848.59;4192814;28;20074;-58
2022/09/28 08:21:49;;;;;;;6.13;2.05;;;;;;;11.27;72.17;98850.44;4186921;28;20467;-57
2022/09/28 08:23:54;;;;;;;3.78;1.60;;;;;;;11.33;71.05;98848.63;4178078;28;20497;-58
2022/09/28 08:25:56;;;;;;;9.52;2.03;;;;;;;11.39;71.27;98852.88;4178178;28;20087;-57
2022/09/28 08:27:59;;;;;;;7.60;2.17;;;;;;;11.44;71.56;98858.84;4179370;28;20033;-58
2022/09/28 08:30:06;;;;;;;4.28;1.30;;;;;;;11.41;72.00;98866.72;4172880;28;20026;-58
2022/09/28 08:32:25;;;;;;;4.60;1.60;;;;;;;11.49;72.59;98859.66;4178826;28;20072;-63
2022/09/28 08:34:46;;;;;;;3.53;1.58;;;;;;;11.52;71.63;98862.22;4179299;28;20044;-58
2022/09/28 08:37:13;;;;;;;8.27;1.63;;;;;;;11.50;71.68;98863.09;4173830;28;20041;-58
2022/09/28 08:39:36;;;;;;;3.67;1.52;;;;;;;11.56;70.59;98868.22;4179990;28;20457;-59
2022/09/28 08:42:02;;;;;;;2.97;1.52;;;;;;;11.52;71.17;98864.81;4179127;28;20048;-58
2022/09/28 08:44:22;;;;;;;4.38;1.40;;;;;;;11.46;71.35;98867.50;4195871;28;20059;-59
2022/09/28 08:46:47;;;;;;;4.55;1.40;;;;;;;11.40;70.64;98864.97;4181355;28;20067;-58
2022/09/28 08:49:12;;;;;;;3.75;1.33;;;;;;;11.37;70.18;98875.44;4176753;28;20105;-58
2022/09/28 08:51:54;;;;;;;2.90;1.35;;;;;;;11.31;69.49;98870.31;4181238;28;20151;-58
2022/09/28 08:54:43;;;;;;;2.55;1.08;;;;;;;11.26;69.15;98880.81;4179417;28;20854;-58
2022/09/28 08:56:58;;;;;;;4.80;1.45;;;;;;;11.38;69.61;98881.53;4172664;28;20045;-59
2022/09/28 08:59:08;;;;;;;4.93;1.58;;;;;;;11.42;68.67;98878.84;4181459;28;20059;-59
2022/09/28 09:01:17;;;;;;;7.57;1.80;;;;;;;11.43;68.91;98884.91;4151183;28;20687;-58
2022/09/28 09:03:23;;;;;;;3.10;1.17;;;;;;;11.35;68.34;98880.66;4180164;28;20064;-58
2022/09/28 09:05:56;;;;;;;5.30;1.65;;;;;;;11.44;68.08;98887.47;4180200;28;20048;-58
2022/09/28 09:08:30;;;;;;;5.93;1.40;;;;;;;11.62;67.57;98875.94;4178269;28;20041;-58
2022/09/28 09:10:49;;;;;;;6.40;1.70;;;;;;;11.84;65.88;98876.47;4173754;28;20557;-58
2022/09/28 09:13:03;;;;;;;4.60;1.45;;;;;;;11.97;66.67;98876.28;4180361;28;20041;-58
2022/09/28 09:15:17;;;;;;;4.70;1.70;;;;;;;11.86;67.15;98885.09;4178217;28;20045;-58
2022/09/28 09:17:28;;;;;;;3.22;1.60;;;;;;;11.72;67.73;98886.22;4180424;28;20588;-58
2022/09/28 09:20:03;;;;;;;5.43;1.60;;;;;;;11.55;66.82;98891.66;4170836;28;20051;-58
2022/09/28 09:22:39;;;;;;;6.93;1.92;;;;;;;11.49;66.74;98898.69;4178404;28;20418;-58
2022/09/28 09:24:49;;;;;;;4.78;1.45;;;;;;;11.71;66.91;98885.34;4180204;28;20132;-58
2022/09/28 09:27:06;;;;;;;6.40;2.90;;;;;;;11.69;66.17;98892.31;4180879;28;20047;-58
2022/09/28 09:29:26;;;;;;;5.88;1.95;;;;;;;11.90;65.64;98895.44;4181091;28;20457;-59
2022/09/28 09:31:45;;;;;;;14.13;7.90;;;;;;;11.95;65.06;98904.94;4181035;28;20073;-58
2022/09/28 09:34:15;;;;;;;4.85;2.22;;;;;;;12.18;63.74;98896.75;4180187;28;20040;-59
2022/09/28 09:36:35;;;;;;;6.63;2.33;;;;;;;12.59;63.88;98891.66;4180846;28;20525;-58
2022/09/28 09:39:18;;;;;;;2.78;1.10;;;;;;;12.64;63.71;98891.56;4180102;28;20572;-58
2022/09/28 09:42:11;;;;;;;3.92;1.30;;;;;;;12.75;63.46;98889.63;4176710;28;20064;-58
2022/09/28 09:44:55;;;;;;;2.47;0.90;;;;;;;12.54;62.68;98894.34;4177401;28;20040;-58
2022/09/28 09:47:20;;;;;;;3.72;1.50;;;;;;;12.42;62.67;98891.97;4180687;28;20033;-59
2022/09/28 09:49:35;;;;;;;3.70;1.63;;;;;;;12.42;62.69;98897.19;4178150;28;20050;-59
2022/09/28 09:51:46;;;;;;;2.22;1.30;;;;;;;12.32;63.16;98887.81;4160478;28;20495;-58
2022/09/28 09:53:54;;;;;;;3.65;1.20;;;;;;;12.43;62.50;98893.69;4174676;28;20033;-58
2022/09/28 09:56:06;;;;;;;6.57;1.50;;;;;;;12.61;63.34;98889.03;4175857;28;20041;-58
2022/09/28 09:58:22;;;;;;;7.72;1.23;;;;;;;12.75;62.82;98897.44;4180339;28;20072;-58
2022/09/28 10:00:36;;;;;;;3.70;1.10;;;;;;;12.86;62.57;98892.84;4180554;28;20040;-59
2022/09/28 10:02:51;;;;;;;3.33;1.10;;;;;;;12.99;61.34;98890.84;4165127;28;20061;-59
2022/09/28 10:05:20;;;;;;;5.35;1.08;;;;;;;13.10;60.36;98893.25;4179660;28;20364;-59
2022/09/28 10:07:25;;;;;;;4.45;1.52;;;;;;;13.13;60.29;98893.16;4180311;28;20494;-58
2022/09/28 10:09:34;;;;;;;3.55;1.10;;;;;;;13.07;60.08;98890.69;4166008;28;20049;-59
2022/09/28 10:11:54;;;;;;;2.25;0.90;;;;;;;12.89;61.21;98889.31;4180323;28;20041;-58
2022/09/28 10:13:58;;;;;;;4.30;1.30;;;;;;;12.86;61.46;98895.44;4183939;28;20086;-59
2022/09/28 10:16:13;;;;;;;6.03;2.38;;;;;;;12.82;61.42;98896.44;4164953;28;20550;-58
2022/09/28 10:18:29;;;;;;;4.85;1.20;;;;;;;12.69;60.13;98900.16;4180347;28;20106;-58